createdAt,value
2023-01-01T00:00:54.895Z,1020.64
2023-01-01T00:01:54.786Z,1020.57
2023-01-01T00:02:54.761Z,1020.61
2023-01-01T00:03:54.807Z,1020.66
2023-01-01T00:04:54.772Z,1020.63
2023-01-01T00:05:54.766Z,1020.58
2023-01-01T00:06:54.763Z,1020.65
2023-01-01T00:07:58.248Z,1020.67
2023-01-01T00:08:54.767Z,1020.67
2023-01-01T00:09:54.798Z,1020.63
2023-01-01T00:10:54.763Z,1020.58
2023-01-01T00:11:54.802Z,1020.67
2023-01-01T00:12:54.764Z,1020.54
2023-01-01T00:13:54.768Z,1020.54
2023-01-01T00:14:54.778Z,1020.56
2023-01-01T00:15:54.765Z,1020.49
2023-01-01T00:16:54.810Z,1020.57
2023-01-01T00:17:54.768Z,1020.61
2023-01-01T00:18:54.772Z,1020.58
2023-01-01T00:19:54.783Z,1020.59
2023-01-01T00:20:54.778Z,1020.64
2023-01-01T00:21:54.777Z,1020.64
2023-01-01T00:22:55.852Z,1020.65
2023-01-01T00:23:54.778Z,1020.66
2023-01-01T00:24:54.789Z,1020.69
2023-01-01T00:25:54.781Z,1020.61
2023-01-01T00:26:54.783Z,1020.7
2023-01-01T00:27:54.777Z,1020.66
2023-01-01T00:28:54.784Z,1020.66
2023-01-01T00:29:54.813Z,1020.67
2023-01-01T00:30:54.757Z,1020.67
2023-01-01T00:31:54.909Z,1020.66
2023-01-01T00:32:55.881Z,1020.71
2023-01-01T00:33:54.788Z,1020.72
2023-01-01T00:34:54.830Z,1020.68
2023-01-01T00:35:54.776Z,1020.7
2023-01-01T00:36:54.792Z,1020.68
2023-01-01T00:37:54.804Z,1020.74
2023-01-01T00:38:54.778Z,1020.77
2023-01-01T00:39:54.796Z,1020.71
2023-01-01T00:40:54.778Z,1020.71
2023-01-01T00:41:54.778Z,1020.7
2023-01-01T00:42:54.785Z,1020.66
2023-01-01T00:43:54.778Z,1020.68
2023-01-01T00:44:54.796Z,1020.72
2023-01-01T00:45:54.850Z,1020.73
2023-01-01T00:46:54.784Z,1020.69
2023-01-01T00:47:54.780Z,1020.71
2023-01-01T00:48:54.780Z,1020.71
2023-01-01T00:49:54.790Z,1020.77
2023-01-01T00:50:54.773Z,1020.77
2023-01-01T00:51:54.780Z,1020.88
2023-01-01T00:52:54.787Z,1020.78
2023-01-01T00:53:54.775Z,1020.84
2023-01-01T00:54:54.877Z,1020.92
2023-01-01T00:55:54.796Z,1020.78
2023-01-01T00:56:54.776Z,1020.88
2023-01-01T00:57:54.777Z,1020.87
2023-01-01T00:59:00.362Z,1020.88
2023-01-01T00:59:54.800Z,1020.92
2023-01-01T01:00:54.971Z,1020.98
2023-01-01T01:01:55.034Z,1020.91
2023-01-01T01:02:54.798Z,1020.92
2023-01-01T01:03:54.764Z,1020.85
2023-01-01T01:04:54.793Z,1020.99
2023-01-01T01:05:54.758Z,1020.92
2023-01-01T01:06:54.778Z,1020.97
2023-01-01T01:07:54.778Z,1020.93
2023-01-01T01:08:54.768Z,1020.93
2023-01-01T01:09:54.784Z,1020.96
2023-01-01T01:10:54.761Z,1020.93
2023-01-01T01:12:18.284Z,1020.94
2023-01-01T01:12:54.764Z,1020.95
2023-01-01T01:13:54.784Z,1021.03
2023-01-01T01:14:54.782Z,1021.03
2023-01-01T01:15:56.376Z,1021.09
2023-01-01T01:16:54.828Z,1021.05
2023-01-01T01:17:54.762Z,1020.97
2023-01-01T01:18:54.759Z,1021.03
2023-01-01T01:19:54.776Z,1021.1
2023-01-01T01:20:54.774Z,1021.04
2023-01-01T01:21:54.756Z,1020.98
2023-01-01T01:22:54.762Z,1021.15
2023-01-01T01:23:54.765Z,1021.14
2023-01-01T01:24:54.780Z,1021.1
2023-01-01T01:25:54.767Z,1021.1
2023-01-01T01:26:54.761Z,1021.15
2023-01-01T01:27:54.765Z,1021.08
2023-01-01T01:28:54.759Z,1021.24
2023-01-01T01:29:54.779Z,1021.17
2023-01-01T01:30:54.852Z,1021.24
2023-01-01T01:31:54.757Z,1021.21
2023-01-01T01:32:54.755Z,1021.18
2023-01-01T01:33:54.779Z,1021.22
2023-01-01T01:34:54.792Z,1021.17
2023-01-01T01:35:54.792Z,1021.19
2023-01-01T01:36:54.782Z,1021.39
2023-01-01T01:37:54.779Z,1021.13
2023-01-01T01:38:54.782Z,1021.16
2023-01-01T01:39:54.790Z,1021.24
2023-01-01T01:40:54.770Z,1021.1
2023-01-01T01:41:54.776Z,1021.24
2023-01-01T01:42:54.774Z,1021.11
2023-01-01T01:43:54.778Z,1021.25
2023-01-01T01:44:54.793Z,1021.21
2023-01-01T01:45:54.800Z,1021.21
2023-01-01T01:46:54.778Z,1021.27
2023-01-01T01:47:54.772Z,1021.15
2023-01-01T01:48:54.775Z,1021.31
2023-01-01T01:49:54.787Z,1021.15
2023-01-01T01:50:54.786Z,1021.15
2023-01-01T01:51:54.771Z,1021.13
2023-01-01T01:52:54.774Z,1021.16
2023-01-01T01:53:54.779Z,1021.21
2023-01-01T01:54:54.784Z,1021.24
2023-01-01T01:55:54.834Z,1021.27
2023-01-01T01:56:54.772Z,1021.14
2023-01-01T01:57:54.778Z,1021.15
2023-01-01T01:58:54.781Z,1021.13
2023-01-01T01:59:54.797Z,1021.11
2023-01-01T02:00:54.877Z,1021.15
2023-01-01T02:01:54.875Z,1020.98
2023-01-01T02:02:54.834Z,1021.11
2023-01-01T02:03:54.775Z,1021.03
2023-01-01T02:04:54.783Z,1021.03
2023-01-01T02:05:54.781Z,1021.07
2023-01-01T02:06:54.773Z,1021.02
2023-01-01T02:07:54.786Z,1021.03
2023-01-01T02:08:54.803Z,1021.03
2023-01-01T02:09:54.792Z,1021.11
2023-01-01T02:10:54.774Z,1021.07
2023-01-01T02:11:54.778Z,1021.13
2023-01-01T02:12:54.771Z,1021.19
2023-01-01T02:13:54.774Z,1021.12
2023-01-01T02:14:54.851Z,1021.28
2023-01-01T02:15:54.785Z,1021.33
2023-01-01T02:16:54.776Z,1021.34
2023-01-01T02:17:54.761Z,1021.36
2023-01-01T02:18:54.756Z,1021.32
2023-01-01T02:19:54.766Z,1021.49
2023-01-01T02:20:54.758Z,1021.34
2023-01-01T02:21:54.768Z,1021.34
2023-01-01T02:22:57.906Z,1021.32
2023-01-01T02:23:54.774Z,1021.29
2023-01-01T02:24:54.776Z,1021.37
2023-01-01T02:25:54.757Z,1021.33
2023-01-01T02:26:54.748Z,1021.33
2023-01-01T02:27:54.752Z,1021.38
2023-01-01T02:28:54.759Z,1021.32
2023-01-01T02:29:54.769Z,1021.27
2023-01-01T02:30:54.816Z,1021.3
2023-01-01T02:31:54.763Z,1021.34
2023-01-01T02:32:54.759Z,1021.42
2023-01-01T02:33:54.765Z,1021.47
2023-01-01T02:34:54.971Z,1021.45
2023-01-01T02:35:54.750Z,1021.48
2023-01-01T02:36:54.754Z,1021.51
2023-01-01T02:37:54.763Z,1021.53
2023-01-01T02:38:54.753Z,1021.34
2023-01-01T02:39:54.778Z,1021.57
2023-01-01T02:40:54.856Z,1021.49
2023-01-01T02:41:54.755Z,1021.71
2023-01-01T02:42:54.777Z,1021.45
2023-01-01T02:43:54.799Z,1021.38
2023-01-01T02:44:54.806Z,1021.4
2023-01-01T02:45:54.817Z,1021.45
2023-01-01T02:46:54.831Z,1021.35
2023-01-01T02:47:54.783Z,1021.47
2023-01-01T02:48:54.788Z,1021.56
2023-01-01T02:49:54.813Z,1021.47
2023-01-01T02:50:54.776Z,1021.41
2023-01-01T02:51:54.779Z,1021.34
2023-01-01T02:52:54.834Z,1021.47
2023-01-01T02:53:54.772Z,1021.32
2023-01-01T02:54:54.784Z,1021.44
2023-01-01T02:55:54.771Z,1021.48
2023-01-01T02:56:54.772Z,1021.52
2023-01-01T02:57:54.784Z,1021.58
2023-01-01T02:58:54.767Z,1021.58
2023-01-01T02:59:54.793Z,1021.51
2023-01-01T03:00:54.782Z,1021.6
2023-01-01T03:01:54.931Z,1021.53
2023-01-01T03:02:54.851Z,1021.5
2023-01-01T03:03:54.779Z,1021.48
2023-01-01T03:04:54.786Z,1021.59
2023-01-01T03:05:54.773Z,1021.6
2023-01-01T03:06:54.781Z,1021.55
2023-01-01T03:07:54.784Z,1021.52
2023-01-01T03:08:54.769Z,1021.52
2023-01-01T03:09:54.789Z,1021.56
2023-01-01T03:10:54.776Z,1021.39
2023-01-01T03:11:54.779Z,1021.48
2023-01-01T03:12:54.765Z,1021.62
2023-01-01T03:13:54.784Z,1021.48
2023-01-01T03:14:54.780Z,1021.55
2023-01-01T03:15:54.813Z,1021.51
2023-01-01T03:16:54.772Z,1021.49
2023-01-01T03:17:54.866Z,1021.44
2023-01-01T03:18:54.770Z,1021.51
2023-01-01T03:19:54.789Z,1021.48
2023-01-01T03:20:54.835Z,1021.52
2023-01-01T03:21:54.817Z,1021.53
2023-01-01T03:22:54.777Z,1021.52
2023-01-01T03:23:54.949Z,1021.54
2023-01-01T03:24:54.803Z,1021.43
2023-01-01T03:25:54.788Z,1021.42
2023-01-01T03:26:54.765Z,1021.47
2023-01-01T03:27:54.759Z,1021.49
2023-01-01T03:28:54.770Z,1021.37
2023-01-01T03:29:54.771Z,1021.41
2023-01-01T03:30:54.815Z,1021.39
2023-01-01T03:31:54.762Z,1021.43
2023-01-01T03:32:54.781Z,1021.42
2023-01-01T03:33:54.765Z,1021.47
2023-01-01T03:34:54.787Z,1021.45
2023-01-01T03:35:54.759Z,1021.44
2023-01-01T03:36:54.759Z,1021.36
2023-01-01T03:37:54.757Z,1021.41
2023-01-01T03:38:54.759Z,1021.47
2023-01-01T03:39:54.778Z,1021.42
2023-01-01T03:40:54.752Z,1021.43
2023-01-01T03:41:54.771Z,1021.35
2023-01-01T03:42:54.763Z,1021.41
2023-01-01T03:43:54.757Z,1021.36
2023-01-01T03:44:54.774Z,1021.49
2023-01-01T03:45:54.766Z,1021.42
2023-01-01T03:46:54.798Z,1021.42
2023-01-01T03:47:54.759Z,1021.4
2023-01-01T03:49:02.191Z,1021.5
2023-01-01T03:49:54.780Z,1021.43
2023-01-01T03:50:54.762Z,1021.47
2023-01-01T03:51:54.753Z,1021.56
2023-01-01T03:52:54.754Z,1021.56
2023-01-01T03:53:54.778Z,1021.55
2023-01-01T03:54:58.883Z,1021.54
2023-01-01T03:55:54.786Z,1021.55
2023-01-01T03:56:54.789Z,1021.56
2023-01-01T03:57:54.775Z,1021.61
2023-01-01T03:58:54.772Z,1021.54
2023-01-01T03:59:54.780Z,1021.54
2023-01-01T04:00:54.882Z,1021.47
2023-01-01T04:01:54.852Z,1021.49
2023-01-01T04:02:54.830Z,1021.45
2023-01-01T04:03:54.770Z,1021.3
2023-01-01T04:04:54.787Z,1021.49
2023-01-01T04:05:54.771Z,1021.32
2023-01-01T04:06:54.789Z,1021.34
2023-01-01T04:07:54.804Z,1021.47
2023-01-01T04:08:54.769Z,1021.47
2023-01-01T04:09:54.783Z,1021.48
2023-01-01T04:10:54.778Z,1021.54
2023-01-01T04:11:54.785Z,1021.41
2023-01-01T04:12:54.772Z,1021.4
2023-01-01T04:13:54.776Z,1021.53
2023-01-01T04:14:54.795Z,1021.38
2023-01-01T04:15:54.812Z,1021.5
2023-01-01T04:16:54.768Z,1021.52
2023-01-01T04:17:54.783Z,1021.48
2023-01-01T04:18:54.789Z,1021.56
2023-01-01T04:19:55.149Z,1021.5
2023-01-01T04:20:54.782Z,1021.59
2023-01-01T04:21:54.775Z,1021.51
2023-01-01T04:22:54.781Z,1021.5
2023-01-01T04:23:54.776Z,1021.63
2023-01-01T04:24:54.797Z,1021.44
2023-01-01T04:25:54.770Z,1021.37
2023-01-01T04:26:54.779Z,1021.42
2023-01-01T04:27:54.780Z,1021.43
2023-01-01T04:28:54.785Z,1021.57
2023-01-01T04:29:54.774Z,1021.51
2023-01-01T04:31:54.796Z,1021.58
2023-01-01T04:32:54.780Z,1021.48
2023-01-01T04:33:54.781Z,1021.48
2023-01-01T04:34:54.790Z,1021.5
2023-01-01T04:35:54.771Z,1021.6
2023-01-01T04:36:54.771Z,1021.68
2023-01-01T04:37:54.784Z,1021.68
2023-01-01T04:38:54.786Z,1021.51
2023-01-01T04:39:54.775Z,1021.61
2023-01-01T04:40:54.764Z,1021.64
2023-01-01T04:41:54.761Z,1021.58
2023-01-01T04:42:54.760Z,1021.73
2023-01-01T04:43:54.759Z,1021.56
2023-01-01T04:44:54.770Z,1021.65
2023-01-01T04:45:54.816Z,1021.61
2023-01-01T04:46:59.990Z,1021.56
2023-01-01T04:47:54.761Z,1021.57
2023-01-01T04:48:54.762Z,1021.59
2023-01-01T04:49:54.782Z,1021.72
2023-01-01T04:50:54.757Z,1021.7
2023-01-01T04:51:54.755Z,1021.63
2023-01-01T04:52:54.764Z,1021.89
2023-01-01T04:53:54.794Z,1021.71
2023-01-01T04:54:54.798Z,1021.71
2023-01-01T04:55:54.766Z,1021.73
2023-01-01T04:56:54.755Z,1021.64
2023-01-01T04:57:54.752Z,1021.68
2023-01-01T04:58:54.755Z,1021.66
2023-01-01T04:59:54.789Z,1021.68
2023-01-01T05:00:54.792Z,1021.73
2023-01-01T05:01:55.031Z,1021.53
2023-01-01T05:02:54.836Z,1021.72
2023-01-01T05:03:54.766Z,1021.67
2023-01-01T05:04:54.787Z,1021.67
2023-01-01T05:05:54.778Z,1021.67
2023-01-01T05:06:54.782Z,1021.62
2023-01-01T05:07:54.786Z,1021.66
2023-01-01T05:08:54.786Z,1021.66
2023-01-01T05:09:54.794Z,1021.59
2023-01-01T05:10:54.760Z,1021.63
2023-01-01T05:11:54.787Z,1021.66
2023-01-01T05:12:54.780Z,1021.71
2023-01-01T05:13:54.776Z,1021.65
2023-01-01T05:14:54.791Z,1021.64
2023-01-01T05:15:54.776Z,1021.77
2023-01-01T05:16:54.815Z,1021.76
2023-01-01T05:17:54.773Z,1021.76
2023-01-01T05:18:54.776Z,1021.64
2023-01-01T05:19:54.793Z,1021.7
2023-01-01T05:20:54.759Z,1021.71
2023-01-01T05:21:54.805Z,1021.78
2023-01-01T05:22:54.773Z,1021.74
2023-01-01T05:23:54.774Z,1021.68
2023-01-01T05:24:54.785Z,1021.7
2023-01-01T05:25:54.777Z,1021.71
2023-01-01T05:26:54.780Z,1021.76
2023-01-01T05:27:54.775Z,1021.72
2023-01-01T05:28:54.776Z,1021.67
2023-01-01T05:29:54.788Z,1021.81
2023-01-01T05:30:54.786Z,1021.8
2023-01-01T05:31:54.919Z,1021.76
2023-01-01T05:32:54.782Z,1021.77
2023-01-01T05:33:54.779Z,1021.8
2023-01-01T05:34:54.803Z,1021.75
2023-01-01T05:35:54.787Z,1021.79
2023-01-01T05:36:54.769Z,1021.75
2023-01-01T05:37:54.771Z,1021.85
2023-01-01T05:38:54.775Z,1021.82
2023-01-01T05:39:54.795Z,1021.89
2023-01-01T05:40:54.757Z,1021.84
2023-01-01T05:41:54.846Z,1021.85
2023-01-01T05:42:54.785Z,1021.96
2023-01-01T05:43:54.773Z,1021.77
2023-01-01T05:44:54.784Z,1021.73
2023-01-01T05:45:54.802Z,1021.79
2023-01-01T05:46:54.770Z,1021.83
2023-01-01T05:47:54.767Z,1021.88
2023-01-01T05:48:54.764Z,1021.85
2023-01-01T05:49:54.772Z,1021.79
2023-01-01T05:50:54.761Z,1021.79
2023-01-01T05:51:54.773Z,1021.99
2023-01-01T05:52:54.868Z,1021.95
2023-01-01T05:53:54.765Z,1021.97
2023-01-01T05:54:54.791Z,1021.98
2023-01-01T05:55:54.798Z,1021.97
2023-01-01T05:56:54.783Z,1022.21
2023-01-01T05:57:54.760Z,1022.01
2023-01-01T05:58:54.860Z,1022.02
2023-01-01T05:59:54.781Z,1022
2023-01-01T06:00:54.768Z,1022
2023-01-01T06:01:54.903Z,1022.04
2023-01-01T06:02:54.797Z,1021.99
2023-01-01T06:03:54.903Z,1022.07
2023-01-01T06:04:54.782Z,1022.14
2023-01-01T06:05:54.761Z,1022.02
2023-01-01T06:06:54.759Z,1022.12
2023-01-01T06:07:54.773Z,1021.97
2023-01-01T06:08:54.768Z,1021.97
2023-01-01T06:09:54.779Z,1022.02
2023-01-01T06:10:54.755Z,1022.2
2023-01-01T06:11:54.788Z,1022.15
2023-01-01T06:12:54.773Z,1022.13
2023-01-01T06:13:54.759Z,1022.08
2023-01-01T06:14:54.783Z,1022.08
2023-01-01T06:15:54.773Z,1022.13
2023-01-01T06:16:54.802Z,1022.06
2023-01-01T06:17:54.791Z,1022.09
2023-01-01T06:18:54.778Z,1022.12
2023-01-01T06:19:54.790Z,1022.1
2023-01-01T06:20:54.762Z,1022.18
2023-01-01T06:21:54.778Z,1022.22
2023-01-01T06:22:54.778Z,1022.21
2023-01-01T06:23:54.779Z,1022.23
2023-01-01T06:24:54.780Z,1022.25
2023-01-01T06:25:54.774Z,1022.26
2023-01-01T06:26:54.776Z,1022.06
2023-01-01T06:27:54.780Z,1022.36
2023-01-01T06:28:54.771Z,1022.3
2023-01-01T06:29:54.797Z,1022.35
2023-01-01T06:30:54.807Z,1022.28
2023-01-01T06:31:54.784Z,1022.42
2023-01-01T06:32:54.772Z,1022.41
2023-01-01T06:33:54.786Z,1022.44
2023-01-01T06:34:54.801Z,1022.4
2023-01-01T06:35:54.776Z,1022.35
2023-01-01T06:36:54.772Z,1022.41
2023-01-01T06:37:54.774Z,1022.33
2023-01-01T06:38:54.780Z,1022.26
2023-01-01T06:39:54.795Z,1022.28
2023-01-01T06:40:54.783Z,1022.25
2023-01-01T06:41:54.770Z,1022.27
2023-01-01T06:42:54.772Z,1022.28
2023-01-01T06:43:54.784Z,1022.25
2023-01-01T06:44:54.777Z,1022.26
2023-01-01T06:45:54.795Z,1022.25
2023-01-01T06:46:54.770Z,1022.22
2023-01-01T06:47:54.780Z,1022.27
2023-01-01T06:48:54.810Z,1022.18
2023-01-01T06:49:54.804Z,1022.25
2023-01-01T06:50:54.781Z,1022.28
2023-01-01T06:51:54.778Z,1022.3
2023-01-01T06:52:54.773Z,1022.38
2023-01-01T06:53:54.782Z,1022.22
2023-01-01T06:54:54.785Z,1022.28
2023-01-01T06:55:57.388Z,1022.38
2023-01-01T06:56:54.877Z,1022.34
2023-01-01T06:57:54.761Z,1022.38
2023-01-01T06:58:54.763Z,1022.4
2023-01-01T06:59:54.773Z,1022.5
2023-01-01T07:00:54.797Z,1022.37
2023-01-01T07:01:54.812Z,1022.31
2023-01-01T07:02:54.851Z,1022.35
2023-01-01T07:03:54.759Z,1022.37
2023-01-01T07:04:54.792Z,1022.34
2023-01-01T07:05:54.767Z,1022.51
2023-01-01T07:06:54.764Z,1022.6
2023-01-01T07:07:54.772Z,1022.48
2023-01-01T07:08:54.767Z,1022.46
2023-01-01T07:09:54.780Z,1022.46
2023-01-01T07:10:54.758Z,1022.53
2023-01-01T07:11:54.767Z,1022.48
2023-01-01T07:12:54.775Z,1022.5
2023-01-01T07:13:54.755Z,1022.57
2023-01-01T07:14:54.770Z,1022.55
2023-01-01T07:15:54.825Z,1022.49
2023-01-01T07:16:54.750Z,1022.59
2023-01-01T07:17:54.764Z,1022.42
2023-01-01T07:18:54.766Z,1022.4
2023-01-01T07:19:54.784Z,1022.56
2023-01-01T07:20:54.762Z,1022.47
2023-01-01T07:21:54.778Z,1022.57
2023-01-01T07:22:54.762Z,1022.49
2023-01-01T07:23:54.774Z,1022.35
2023-01-01T07:24:54.797Z,1022.44
2023-01-01T07:25:54.781Z,1022.87
2023-01-01T07:26:54.782Z,1022.49
2023-01-01T07:27:54.772Z,1022.59
2023-01-01T07:28:56.414Z,1022.41
2023-01-01T07:29:54.789Z,1022.49
2023-01-01T07:30:54.822Z,1022.4
2023-01-01T07:31:54.778Z,1022.43
2023-01-01T07:32:54.774Z,1022.51
2023-01-01T07:33:54.782Z,1022.49
2023-01-01T07:34:54.788Z,1022.49
2023-01-01T07:35:54.760Z,1022.42
2023-01-01T07:36:54.776Z,1022.49
2023-01-01T07:37:54.771Z,1022.42
2023-01-01T07:38:54.788Z,1022.42
2023-01-01T07:39:54.808Z,1022.79
2023-01-01T07:40:54.780Z,1022.74
2023-01-01T07:41:54.779Z,1022.76
2023-01-01T07:42:54.775Z,1022.67
2023-01-01T07:43:54.777Z,1022.84
2023-01-01T07:44:54.786Z,1022.58
2023-01-01T07:45:54.850Z,1022.75
2023-01-01T07:46:54.774Z,1022.73
2023-01-01T07:47:54.763Z,1022.78
2023-01-01T07:48:54.774Z,1022.84
2023-01-01T07:49:54.795Z,1022.81
2023-01-01T07:50:54.762Z,1022.81
2023-01-01T07:51:54.771Z,1022.83
2023-01-01T07:52:54.784Z,1022.8
2023-01-01T07:53:54.769Z,1022.93
2023-01-01T07:54:54.776Z,1022.83
2023-01-01T07:55:54.783Z,1022.93
2023-01-01T07:56:54.781Z,1023.03
2023-01-01T07:57:54.778Z,1023
2023-01-01T07:58:54.781Z,1022.94
2023-01-01T07:59:54.799Z,1022.93
2023-01-01T08:00:54.767Z,1023.11
2023-01-01T08:01:54.889Z,1023
2023-01-01T08:02:54.881Z,1023.02
2023-01-01T08:03:54.780Z,1023.01
2023-01-01T08:04:54.799Z,1022.99
2023-01-01T08:05:54.774Z,1022.98
2023-01-01T08:06:54.781Z,1022.93
2023-01-01T08:07:54.777Z,1022.96
2023-01-01T08:08:54.779Z,1022.94
2023-01-01T08:09:54.843Z,1022.91
2023-01-01T08:11:00.246Z,1022.93
2023-01-01T08:11:54.784Z,1022.89
2023-01-01T08:12:54.774Z,1023.03
2023-01-01T08:13:54.794Z,1022.87
2023-01-01T08:14:54.775Z,1022.88
2023-01-01T08:15:54.797Z,1023.02
2023-01-01T08:16:54.763Z,1022.91
2023-01-01T08:17:54.765Z,1023.02
2023-01-01T08:18:54.763Z,1022.98
2023-01-01T08:19:54.769Z,1022.95
2023-01-01T08:20:54.761Z,1022.99
2023-01-01T08:21:54.764Z,1022.93
2023-01-01T08:22:54.752Z,1022.89
2023-01-01T08:23:54.785Z,1023.04
2023-01-01T08:24:54.765Z,1023.12
2023-01-01T08:25:54.760Z,1022.91
2023-01-01T08:26:54.816Z,1023
2023-01-01T08:27:54.763Z,1022.88
2023-01-01T08:28:57.380Z,1023.02
2023-01-01T08:29:54.773Z,1023.3
2023-01-01T08:30:54.798Z,1023.3
2023-01-01T08:31:54.766Z,1023.08
2023-01-01T08:32:54.769Z,1023.11
2023-01-01T08:33:54.764Z,1023.06
2023-01-01T08:34:54.781Z,1023.24
2023-01-01T08:35:55.019Z,1023.26
2023-01-01T08:36:54.756Z,1023.25
2023-01-01T08:37:54.758Z,1023.25
2023-01-01T08:38:54.763Z,1023.25
2023-01-01T08:39:54.781Z,1023.35
2023-01-01T08:40:54.775Z,1023.43
2023-01-01T08:41:54.772Z,1023.54
2023-01-01T08:42:54.786Z,1023.54
2023-01-01T08:43:54.780Z,1023.49
2023-01-01T08:44:54.788Z,1023.54
2023-01-01T08:45:54.775Z,1023.53
2023-01-01T08:46:54.920Z,1023.47
2023-01-01T08:47:54.771Z,1023.44
2023-01-01T08:48:54.774Z,1023.53
2023-01-01T08:49:54.797Z,1023.51
2023-01-01T08:50:54.765Z,1023.61
2023-01-01T08:51:54.777Z,1023.59
2023-01-01T08:52:54.781Z,1023.6
2023-01-01T08:53:54.773Z,1023.58
2023-01-01T08:54:54.785Z,1023.58
2023-01-01T08:55:54.772Z,1023.5
2023-01-01T08:56:54.771Z,1023.6
2023-01-01T08:57:54.784Z,1023.6
2023-01-01T08:58:57.460Z,1023.78
2023-01-01T08:59:54.781Z,1023.75
2023-01-01T09:00:54.780Z,1023.72
2023-01-01T09:01:54.989Z,1023.7
2023-01-01T09:02:54.833Z,1023.75
2023-01-01T09:03:54.774Z,1023.72
2023-01-01T09:04:54.787Z,1023.7
2023-01-01T09:05:54.772Z,1023.73
2023-01-01T09:06:54.793Z,1023.63
2023-01-01T09:07:54.772Z,1023.71
2023-01-01T09:08:54.768Z,1023.63
2023-01-01T09:09:54.780Z,1023.52
2023-01-01T09:10:54.765Z,1023.64
2023-01-01T09:11:54.779Z,1023.64
2023-01-01T09:12:54.773Z,1023.65
2023-01-01T09:13:54.836Z,1023.63
2023-01-01T09:14:54.786Z,1023.65
2023-01-01T09:15:54.813Z,1023.57
2023-01-01T09:16:54.777Z,1023.67
2023-01-01T09:17:54.767Z,1023.64
2023-01-01T09:18:54.775Z,1023.75
2023-01-01T09:19:54.808Z,1023.71
2023-01-01T09:20:54.781Z,1023.64
2023-01-01T09:21:54.791Z,1023.66
2023-01-01T09:22:54.781Z,1023.74
2023-01-01T09:23:54.777Z,1023.88
2023-01-01T09:24:54.788Z,1023.88
2023-01-01T09:25:54.760Z,1023.81
2023-01-01T09:26:54.766Z,1023.75
2023-01-01T09:27:54.764Z,1023.81
2023-01-01T09:28:54.756Z,1023.82
2023-01-01T09:29:54.785Z,1023.85
2023-01-01T09:30:54.768Z,1023.8
2023-01-01T09:31:54.844Z,1023.9
2023-01-01T09:32:54.769Z,1023.93
2023-01-01T09:33:54.757Z,1023.88
2023-01-01T09:34:54.776Z,1023.93
2023-01-01T09:35:54.754Z,1023.89
2023-01-01T09:36:54.751Z,1023.88
2023-01-01T09:37:54.774Z,1023.87
2023-01-01T09:38:54.752Z,1023.87
2023-01-01T09:39:54.783Z,1023.82
2023-01-01T09:40:54.761Z,1023.95
2023-01-01T09:41:54.753Z,1023.8
2023-01-01T09:42:54.751Z,1023.91
2023-01-01T09:43:54.764Z,1023.84
2023-01-01T09:44:54.771Z,1023.78
2023-01-01T09:45:54.799Z,1023.82
2023-01-01T09:46:54.765Z,1024.05
2023-01-01T09:47:54.761Z,1023.8
2023-01-01T09:48:54.768Z,1023.83
2023-01-01T09:49:54.786Z,1023.85
2023-01-01T09:50:54.772Z,1023.94
2023-01-01T09:51:58.137Z,1023.83
2023-01-01T09:52:54.781Z,1023.97
2023-01-01T09:53:54.773Z,1023.84
2023-01-01T09:54:54.830Z,1023.9
2023-01-01T09:55:54.774Z,1023.93
2023-01-01T09:56:54.777Z,1023.85
2023-01-01T09:57:54.775Z,1023.9
2023-01-01T09:58:54.777Z,1024.03
2023-01-01T09:59:54.780Z,1023.93
2023-01-01T10:00:54.832Z,1024.09
2023-01-01T10:01:54.868Z,1023.92
2023-01-01T10:02:54.767Z,1024.12
2023-01-01T10:03:54.825Z,1023.89
2023-01-01T10:04:54.855Z,1024.13
2023-01-01T10:05:54.776Z,1024
2023-01-01T10:06:54.787Z,1023.97
2023-01-01T10:07:54.777Z,1023.93
2023-01-01T10:08:54.772Z,1024.05
2023-01-01T10:09:54.788Z,1024.05
2023-01-01T10:10:54.775Z,1024.04
2023-01-01T10:11:54.777Z,1023.97
2023-01-01T10:12:54.785Z,1024
2023-01-01T10:13:54.779Z,1024.01
2023-01-01T10:15:00.528Z,1024.05
2023-01-01T10:15:54.773Z,1024.04
2023-01-01T10:16:54.840Z,1024.01
2023-01-01T10:17:54.785Z,1023.94
2023-01-01T10:18:54.767Z,1024.1
2023-01-01T10:19:54.784Z,1023.98
2023-01-01T10:20:54.777Z,1023.98
2023-01-01T10:21:54.765Z,1023.97
2023-01-01T10:22:54.775Z,1024.01
2023-01-01T10:23:54.788Z,1023.86
2023-01-01T10:24:54.786Z,1023.88
2023-01-01T10:25:54.778Z,1023.81
2023-01-01T10:26:54.784Z,1023.9
2023-01-01T10:27:59.378Z,1023.88
2023-01-01T10:28:54.771Z,1023.84
2023-01-01T10:30:01.341Z,1023.76
2023-01-01T10:30:54.779Z,1023.75
2023-01-01T10:31:54.844Z,1023.73
2023-01-01T10:32:54.772Z,1023.73
2023-01-01T10:33:54.784Z,1023.73
2023-01-01T10:34:54.792Z,1023.72
2023-01-01T10:35:54.783Z,1023.76
2023-01-01T10:36:54.779Z,1023.73
2023-01-01T10:37:54.765Z,1023.72
2023-01-01T10:38:54.759Z,1023.72
2023-01-01T10:39:54.780Z,1023.8
2023-01-01T10:40:54.753Z,1023.8
2023-01-01T10:41:54.766Z,1023.62
2023-01-01T10:42:54.767Z,1023.68
2023-01-01T10:43:54.779Z,1023.62
2023-01-01T10:44:54.774Z,1023.62
2023-01-01T10:45:54.834Z,1023.62
2023-01-01T10:46:54.775Z,1023.52
2023-01-01T10:47:54.758Z,1023.57
2023-01-01T10:48:54.764Z,1023.57
2023-01-01T10:49:54.777Z,1023.66
2023-01-01T10:50:54.757Z,1023.61
2023-01-01T10:51:54.773Z,1023.78
2023-01-01T10:52:54.780Z,1023.63
2023-01-01T10:53:54.753Z,1023.68
2023-01-01T10:54:54.772Z,1023.61
2023-01-01T10:55:54.752Z,1023.89
2023-01-01T10:56:54.761Z,1023.63
2023-01-01T10:57:54.759Z,1023.75
2023-01-01T10:58:54.883Z,1023.68
2023-01-01T10:59:54.849Z,1023.66
2023-01-01T11:00:54.803Z,1023.77
2023-01-01T11:01:54.972Z,1023.94
2023-01-01T11:02:54.786Z,1023.93
2023-01-01T11:03:54.765Z,1023.78
2023-01-01T11:04:54.783Z,1023.89
2023-01-01T11:05:54.773Z,1023.9
2023-01-01T11:06:54.769Z,1023.85
2023-01-01T11:07:54.775Z,1023.9
2023-01-01T11:08:54.805Z,1023.91
2023-01-01T11:10:03.170Z,1023.96
2023-01-01T11:10:54.772Z,1023.91
2023-01-01T11:11:54.781Z,1023.9
2023-01-01T11:13:05.719Z,1023.96
2023-01-01T11:13:54.775Z,1023.98
2023-01-01T11:14:54.782Z,1023.91
2023-01-01T11:15:54.772Z,1024.03
2023-01-01T11:16:54.788Z,1023.97
2023-01-01T11:17:54.762Z,1024.03
2023-01-01T11:18:54.760Z,1024.07
2023-01-01T11:20:01.336Z,1024
2023-01-01T11:20:54.799Z,1024.16
2023-01-01T11:21:54.763Z,1023.99
2023-01-01T11:22:54.768Z,1023.98
2023-01-01T11:23:54.839Z,1024.04
2023-01-01T11:24:54.789Z,1024.01
2023-01-01T11:25:54.786Z,1023.87
2023-01-01T11:26:55.364Z,1023.81
2023-01-01T11:27:54.777Z,1023.88
2023-01-01T11:28:54.766Z,1023.92
2023-01-01T11:29:54.820Z,1023.83
2023-01-01T11:30:54.803Z,1023.91
2023-01-01T11:31:54.782Z,1023.84
2023-01-01T11:32:55.775Z,1023.85
2023-01-01T11:33:54.781Z,1023.87
2023-01-01T11:34:54.978Z,1023.74
2023-01-01T11:35:54.777Z,1023.68
2023-01-01T11:36:54.764Z,1023.72
2023-01-01T11:37:54.772Z,1023.69
2023-01-01T11:38:54.771Z,1023.69
2023-01-01T11:39:54.784Z,1023.57
2023-01-01T11:40:54.775Z,1023.72
2023-01-01T11:41:54.767Z,1023.74
2023-01-01T11:42:58.798Z,1023.67
2023-01-01T11:43:54.776Z,1023.64
2023-01-01T11:44:54.787Z,1023.67
2023-01-01T11:45:54.904Z,1023.64
2023-01-01T11:46:54.771Z,1023.66
2023-01-01T11:47:54.777Z,1023.65
2023-01-01T11:48:54.816Z,1023.65
2023-01-01T11:49:54.769Z,1023.71
2023-01-01T11:50:54.776Z,1023.75
2023-01-01T11:51:54.751Z,1023.77
2023-01-01T11:52:54.753Z,1023.91
2023-01-01T11:53:54.759Z,1023.77
2023-01-01T11:54:54.785Z,1023.76
2023-01-01T11:55:54.774Z,1023.8
2023-01-01T11:56:54.779Z,1023.68
2023-01-01T11:57:54.754Z,1023.67
2023-01-01T11:58:54.760Z,1023.67
2023-01-01T11:59:54.768Z,1023.7
2023-01-01T12:00:54.761Z,1023.64
2023-01-01T12:01:54.765Z,1023.78
2023-01-01T12:02:54.777Z,1023.75
2023-01-01T12:03:54.795Z,1023.65
2023-01-01T12:04:54.770Z,1023.67
2023-01-01T12:05:54.757Z,1023.7
2023-01-01T12:06:54.751Z,1023.61
2023-01-01T12:07:54.753Z,1023.69
2023-01-01T12:08:54.758Z,1023.73
2023-01-01T12:09:54.773Z,1023.64